createdAt,value
2023-05-19T06:41:59.165Z,60.57
2023-05-19T06:45:39.092Z,60.46
2023-05-19T06:48:54.307Z,60.54
2023-05-19T06:51:44.546Z,60.54
2023-05-19T06:54:23.534Z,60.61
2023-05-19T06:57:23.149Z,60.50
2023-05-19T07:00:33.856Z,60.48
2023-05-19T07:04:13.182Z,60.40
2023-05-19T07:08:50.864Z,60.41
2023-05-19T07:18:31.884Z,60.41
2023-05-19T07:21:29.815Z,60.42
2023-05-19T07:28:46.271Z,60.38
2023-05-19T07:32:08.930Z,60.30
2023-05-19T07:34:50.541Z,60.40
2023-05-19T07:37:59.623Z,60.39
2023-05-19T07:41:27.105Z,60.38
2023-05-19T07:44:45.835Z,60.50
2023-05-19T07:47:37.780Z,60.52
2023-05-19T07:50:55.345Z,60.35
2023-05-19T07:53:54.170Z,60.37
2023-05-19T07:56:43.029Z,60.35
2023-05-19T07:59:13.610Z,60.22
2023-05-19T08:01:47.405Z,60.24
2023-05-19T08:04:36.292Z,60.19
2023-05-19T08:07:27.330Z,60.19
2023-05-19T08:10:01.666Z,60.24
2023-05-19T08:12:41.906Z,60.26
2023-05-19T08:15:13.415Z,60.33
2023-05-19T08:18:10.706Z,60.22
2023-05-19T08:20:38.940Z,60.24
2023-05-19T08:23:27.244Z,60.19
2023-05-19T08:37:00.149Z,59.99
2023-05-19T08:39:49.952Z,60.07
2023-05-19T08:43:03.249Z,60.23
2023-05-19T08:46:08.477Z,60.25
2023-05-19T08:49:05.238Z,60.22
2023-05-19T08:52:21.379Z,60.22
2023-05-19T08:55:17.421Z,60.28
2023-05-19T08:57:51.344Z,60.20
2023-05-19T09:00:24.431Z,60.08
2023-05-19T09:03:17.725Z,60.08
2023-05-19T09:06:02.206Z,59.99
2023-05-19T09:08:47.573Z,60.17
2023-05-19T09:11:40.234Z,60.17
2023-05-19T09:14:10.093Z,60.21
2023-05-19T09:16:48.694Z,60.13
2023-05-19T09:19:48.725Z,60.10
2023-05-19T09:22:28.086Z,60.06
2023-05-19T09:24:59.511Z,60.00
2023-05-19T09:27:41.734Z,59.96
2023-05-19T09:30:33.283Z,59.90
2023-05-19T09:33:31.958Z,59.87
2023-05-19T09:36:14.530Z,59.82
2023-05-19T09:39:13.708Z,59.82
2023-05-19T09:42:17.482Z,59.65
2023-05-19T09:45:34.838Z,59.50
2023-05-19T09:48:50.758Z,59.41
2023-05-19T09:52:30.816Z,59.42
2023-05-19T09:56:03.992Z,59.49
2023-05-19T09:59:15.927Z,59.46
2023-05-19T10:01:52.794Z,59.46
2023-05-19T10:04:27.594Z,59.38
2023-05-19T10:07:16.215Z,59.29
2023-05-19T10:09:49.668Z,59.09
2023-05-19T10:13:09.566Z,59.10
2023-05-19T10:15:57.024Z,58.96
2023-05-19T10:18:50.866Z,58.83
2023-05-19T10:21:51.314Z,58.95
2023-05-19T10:24:26.998Z,58.87
2023-05-19T10:27:12.599Z,59.01
2023-05-19T10:29:51.592Z,58.91
2023-05-19T10:32:32.671Z,58.72
2023-05-19T10:35:47.499Z,58.86
2023-05-19T10:38:29.605Z,58.77
2023-05-19T10:41:57.921Z,58.65
2023-05-19T10:45:26.764Z,58.55
2023-05-19T10:48:26.034Z,58.45
2023-05-19T10:51:32.528Z,58.45
2023-05-19T10:54:41.469Z,58.27
2023-05-19T10:57:17.133Z,58.23
2023-05-19T11:00:33.284Z,58.15
2023-05-19T11:03:59.841Z,58.14
2023-05-19T11:06:32.672Z,58.16
2023-05-19T11:09:37.894Z,58.08
2023-05-19T11:12:12.261Z,58.12
2023-05-19T11:14:45.262Z,58.09
2023-05-19T11:17:24.664Z,58.06
